createdAt,value
2019-03-22T00:00:41.163Z,21.13
2019-03-22T00:03:13.230Z,21.60
2019-03-22T00:05:45.306Z,23.13
2019-03-22T00:08:17.431Z,22.40
2019-03-22T00:10:49.523Z,20.90
2019-03-22T00:13:21.676Z,21.07
2019-03-22T00:15:53.844Z,21.87
2019-03-22T00:18:26.004Z,24.07
2019-03-22T00:20:58.177Z,24.33
2019-03-22T00:23:30.306Z,23.40
2019-03-22T00:26:02.416Z,22.80
2019-03-22T00:28:34.560Z,21.20
2019-03-22T00:31:06.648Z,21.10
2019-03-22T00:33:38.828Z,21.73
2019-03-22T00:36:10.953Z,23.13
2019-03-22T00:38:43.057Z,21.23
2019-03-22T00:41:15.182Z,20.60
2019-03-22T00:43:47.296Z,21.63
2019-03-22T00:46:19.435Z,20.73
2019-03-22T00:48:51.497Z,20.37
2019-03-22T00:51:23.591Z,20.90
2019-03-22T00:53:55.695Z,21.20
2019-03-22T00:56:27.743Z,20.70
2019-03-22T00:58:59.831Z,20.77
2019-03-22T01:01:32.019Z,21.37
2019-03-22T01:04:04.159Z,22.23
2019-03-22T01:06:36.303Z,22.20
2019-03-22T01:09:08.984Z,22.37
2019-03-22T01:11:41.138Z,23.40
2019-03-22T01:14:13.282Z,20.23
2019-03-22T01:16:45.390Z,25.37
2019-03-22T01:19:17.540Z,23.93
2019-03-22T01:21:49.729Z,23.93
2019-03-22T01:24:21.782Z,23.80
2019-03-22T01:26:53.913Z,22.97
2019-03-22T01:29:26.032Z,22.33
2019-03-22T01:31:58.137Z,21.10
2019-03-22T01:34:30.258Z,23.80
2019-03-22T01:37:02.360Z,22.87
2019-03-22T01:39:34.477Z,21.47
2019-03-22T01:42:06.626Z,22.00
2019-03-22T01:44:38.763Z,21.57
2019-03-22T01:47:10.899Z,19.97
2019-03-22T01:49:43.016Z,20.77
2019-03-22T01:52:15.120Z,22.13
2019-03-22T01:54:47.124Z,22.30
2019-03-22T01:57:19.363Z,23.07
2019-03-22T01:59:51.477Z,24.13
2019-03-22T02:02:23.503Z,25.90
2019-03-22T02:04:55.667Z,23.23
2019-03-22T02:07:27.753Z,22.10
2019-03-22T02:09:59.905Z,24.90
2019-03-22T02:12:32.009Z,19.87
2019-03-22T02:15:05.692Z,22.57
2019-03-22T02:17:37.796Z,25.67
2019-03-22T02:20:10.837Z,24.87
2019-03-22T02:22:46.307Z,22.83
2019-03-22T02:25:18.628Z,22.87
2019-03-22T02:27:50.771Z,24.60
2019-03-22T02:30:22.846Z,25.87
2019-03-22T02:32:54.972Z,24.13
2019-03-22T02:35:29.321Z,27.27
2019-03-22T02:38:00.878Z,25.77
2019-03-22T02:40:32.975Z,26.67
2019-03-22T02:43:05.010Z,26.53
2019-03-22T02:45:37.100Z,25.13
2019-03-22T02:48:09.272Z,27.00
2019-03-22T02:50:41.409Z,25.63
2019-03-22T02:53:13.490Z,25.10
2019-03-22T02:55:45.647Z,23.50
2019-03-22T02:58:21.057Z,21.03
2019-03-22T03:00:51.597Z,21.80
2019-03-22T03:03:23.666Z,23.20
2019-03-22T03:05:55.730Z,19.57
2019-03-22T03:08:27.900Z,18.27
2019-03-22T03:10:59.972Z,18.83
2019-03-22T03:13:32.086Z,17.87
2019-03-22T03:16:04.217Z,18.83
2019-03-22T03:18:36.253Z,17.77
2019-03-22T03:21:08.400Z,17.03
2019-03-22T03:23:40.523Z,17.93
2019-03-22T03:26:12.684Z,16.90
2019-03-22T03:28:44.817Z,16.20
2019-03-22T03:31:16.925Z,14.37
2019-03-22T03:33:49.014Z,13.83
2019-03-22T03:36:21.053Z,14.63
2019-03-22T03:38:53.172Z,14.23
2019-03-22T03:41:25.315Z,14.47
2019-03-22T03:43:57.441Z,14.53
2019-03-22T03:46:29.557Z,14.70
2019-03-22T03:49:01.714Z,14.33
2019-03-22T03:51:33.774Z,14.43
2019-03-22T03:54:05.965Z,15.20
2019-03-22T03:56:38.011Z,15.07
2019-03-22T03:59:10.165Z,14.23
2019-03-22T04:01:42.261Z,14.63
2019-03-22T04:04:14.409Z,14.53
2019-03-22T04:06:46.546Z,14.17
2019-03-22T04:09:18.553Z,14.10
2019-03-22T04:11:50.664Z,14.77
2019-03-22T04:14:22.789Z,14.23
2019-03-22T04:16:54.885Z,14.83
2019-03-22T04:19:27.082Z,14.00
2019-03-22T04:21:59.189Z,14.03
2019-03-22T04:24:31.329Z,14.27
2019-03-22T04:27:03.398Z,15.17
2019-03-22T04:29:35.483Z,15.00
2019-03-22T04:32:07.573Z,15.37
2019-03-22T04:34:39.697Z,14.97
2019-03-22T04:37:11.809Z,13.50
2019-03-22T04:39:43.953Z,14.70
2019-03-22T04:42:16.109Z,15.13
2019-03-22T04:44:48.250Z,14.17
2019-03-22T04:47:22.625Z,15.07
2019-03-22T04:49:55.932Z,15.07
2019-03-22T04:52:29.062Z,15.30
2019-03-22T04:55:03.783Z,14.13
2019-03-22T04:57:37.178Z,13.97
2019-03-22T05:00:10.488Z,15.60
2019-03-22T05:02:45.221Z,15.63
2019-03-22T05:05:19.716Z,15.13
2019-03-22T05:07:53.917Z,15.37
2019-03-22T05:10:27.343Z,14.97
2019-03-22T05:13:02.337Z,14.93
2019-03-22T05:15:35.842Z,14.23
2019-03-22T05:18:08.447Z,15.53
2019-03-22T05:20:43.217Z,15.90
2019-03-22T05:23:17.447Z,15.30
2019-03-22T05:25:53.075Z,15.60
2019-03-22T05:28:26.225Z,15.40
2019-03-22T05:32:03.555Z,15.10
2019-03-22T05:34:35.652Z,14.30
2019-03-22T05:37:07.936Z,14.60
2019-03-22T05:39:40.036Z,15.03
2019-03-22T05:42:12.174Z,14.43
2019-03-22T05:44:44.284Z,14.43
2019-03-22T05:47:16.375Z,14.70
2019-03-22T05:49:48.514Z,14.23
2019-03-22T05:52:20.619Z,14.47
2019-03-22T05:54:52.715Z,14.03
2019-03-22T05:57:24.821Z,13.80
2019-03-22T05:59:56.970Z,14.33
2019-03-22T06:02:29.105Z,13.27
2019-03-22T06:05:01.209Z,13.57
2019-03-22T06:07:33.426Z,13.40
2019-03-22T06:10:06.336Z,13.13
2019-03-22T06:12:38.445Z,13.50
2019-03-22T06:15:11.070Z,13.30
2019-03-22T06:17:51.602Z,12.97
2019-03-22T06:20:17.043Z,14.27
2019-03-22T06:22:49.359Z,12.77
2019-03-22T06:25:21.445Z,13.57
2019-03-22T06:27:53.609Z,12.40
2019-03-22T06:30:25.776Z,11.60
2019-03-22T06:33:01.068Z,12.63
2019-03-22T06:35:33.253Z,13.37
2019-03-22T06:38:05.419Z,13.80
2019-03-22T06:40:37.605Z,14.00
2019-03-22T06:43:09.643Z,14.83
2019-03-22T06:45:41.797Z,17.60
2019-03-22T06:48:13.942Z,12.80
2019-03-22T06:50:46.117Z,13.00
2019-03-22T06:53:18.188Z,12.80
2019-03-22T06:55:50.211Z,12.90
2019-03-22T06:58:24.207Z,12.87
2019-03-22T07:00:56.065Z,12.67
2019-03-22T07:03:28.187Z,12.60
2019-03-22T07:06:00.255Z,12.43
2019-03-22T07:08:32.402Z,12.30
2019-03-22T07:11:04.538Z,11.70
2019-03-22T07:13:36.678Z,12.33
2019-03-22T07:16:08.923Z,11.73
2019-03-22T07:18:41.070Z,11.47
2019-03-22T07:21:13.225Z,12.23
2019-03-22T07:23:45.375Z,12.10
2019-03-22T07:26:17.489Z,12.67
2019-03-22T07:28:49.611Z,12.20
2019-03-22T07:31:21.805Z,12.87
2019-03-22T07:33:53.923Z,12.30
2019-03-22T07:36:26.074Z,13.13
2019-03-22T07:38:58.171Z,12.67
2019-03-22T07:41:30.258Z,13.03
2019-03-22T07:44:02.453Z,12.90
2019-03-22T07:46:34.602Z,12.20
2019-03-22T07:49:06.894Z,13.33
2019-03-22T07:51:39.074Z,12.27
2019-03-22T07:54:11.171Z,12.60
2019-03-22T07:56:43.313Z,12.93
2019-03-22T07:59:15.491Z,13.90
2019-03-22T08:01:47.657Z,12.57
2019-03-22T08:04:19.775Z,12.87
2019-03-22T08:06:51.911Z,12.80
2019-03-22T08:09:24.025Z,12.43
2019-03-22T08:11:56.174Z,12.03
2019-03-22T08:14:28.343Z,12.40
2019-03-22T08:17:00.456Z,12.63
2019-03-22T08:19:32.596Z,11.83
2019-03-22T08:22:04.737Z,11.17
2019-03-22T08:24:36.860Z,11.80
2019-03-22T08:27:08.895Z,11.80
2019-03-22T08:29:41.090Z,10.77
2019-03-22T08:32:13.222Z,11.77
2019-03-22T08:34:47.691Z,11.03
2019-03-22T08:37:19.135Z,11.20
2019-03-22T08:39:51.156Z,11.57
2019-03-22T08:42:23.301Z,11.27
2019-03-22T08:44:55.373Z,11.13
2019-03-22T08:47:33.979Z,10.63
2019-03-22T08:50:01.619Z,10.53
2019-03-22T08:52:33.770Z,9.77
2019-03-22T08:55:06.124Z,9.60
2019-03-22T08:57:38.236Z,8.83
2019-03-22T09:00:11.139Z,9.87
2019-03-22T09:02:43.267Z,8.47
2019-03-22T09:05:15.393Z,8.23
2019-03-22T09:07:47.543Z,8.00
2019-03-22T09:10:19.700Z,8.40
2019-03-22T09:12:51.735Z,7.37
2019-03-22T09:15:23.885Z,7.07
2019-03-22T09:17:55.983Z,7.47
2019-03-22T09:20:28.161Z,6.80
2019-03-22T09:23:00.179Z,7.13
2019-03-22T09:25:32.359Z,6.80
2019-03-22T09:28:04.496Z,6.80
2019-03-22T09:30:36.596Z,5.73
2019-03-22T09:33:08.725Z,6.30
2019-03-22T09:35:40.903Z,5.93
2019-03-22T09:38:13.589Z,5.63
2019-03-22T09:40:45.811Z,6.03
2019-03-22T09:43:17.991Z,6.60
2019-03-22T09:45:50.096Z,6.30
2019-03-22T09:48:22.216Z,7.27
2019-03-22T09:50:54.323Z,6.13
2019-03-22T09:53:26.524Z,6.13
2019-03-22T09:55:58.635Z,5.43
2019-03-22T09:58:30.794Z,5.43
2019-03-22T10:01:02.977Z,5.33
2019-03-22T10:03:35.233Z,5.43
2019-03-22T10:06:07.398Z,5.43
2019-03-22T10:08:39.567Z,5.47
2019-03-22T10:11:11.723Z,5.90
2019-03-22T10:13:43.942Z,5.23
2019-03-22T10:16:16.130Z,5.20
2019-03-22T10:18:48.170Z,5.07
2019-03-22T10:21:22.690Z,5.03
2019-03-22T10:23:54.201Z,5.23
2019-03-22T10:26:26.396Z,5.70
2019-03-22T10:28:58.523Z,5.00
2019-03-22T10:31:37.187Z,5.00
2019-03-22T10:34:04.520Z,5.00
2019-03-22T10:36:36.617Z,5.00
2019-03-22T10:39:10.967Z,5.33
2019-03-22T10:41:43.169Z,5.40
2019-03-22T10:44:15.361Z,5.60
2019-03-22T10:46:47.524Z,5.33
2019-03-22T10:49:19.650Z,4.70
2019-03-22T10:51:57.757Z,5.90
2019-03-22T10:54:25.641Z,5.73
2019-03-22T10:56:57.634Z,5.27
2019-03-22T10:59:29.827Z,5.07
2019-03-22T11:02:03.697Z,5.73
2019-03-22T11:04:35.903Z,5.80
2019-03-22T11:07:07.996Z,5.53
2019-03-22T11:09:40.210Z,5.27
2019-03-22T11:12:12.737Z,5.70
2019-03-22T11:14:45.761Z,5.50
2019-03-22T11:17:18.084Z,5.40
2019-03-22T11:19:50.200Z,5.73
2019-03-22T11:22:22.362Z,5.97
2019-03-22T11:24:54.531Z,5.30
2019-03-22T11:27:26.655Z,5.40
2019-03-22T11:29:58.828Z,4.93
2019-03-22T11:32:30.966Z,5.50
2019-03-22T11:35:03.139Z,5.07
2019-03-22T11:37:35.541Z,4.93
2019-03-22T11:40:10.844Z,5.27
2019-03-22T11:42:42.899Z,5.43
2019-03-22T11:45:18.144Z,5.57
2019-03-22T11:47:50.308Z,5.50
2019-03-22T11:50:22.433Z,5.20
2019-03-22T11:52:54.618Z,5.67
2019-03-22T11:55:26.794Z,5.13
2019-03-22T11:58:02.410Z,4.73
2019-03-22T12:00:34.540Z,4.63
2019-03-22T12:03:06.800Z,4.73
2019-03-22T12:05:40.571Z,4.67
2019-03-22T12:08:12.827Z,4.73
2019-03-22T12:10:44.854Z,4.40
2019-03-22T12:13:17.028Z,4.17
2019-03-22T12:15:49.207Z,4.50
2019-03-22T12:18:24.592Z,4.30
2019-03-22T12:20:56.767Z,3.90
2019-03-22T12:23:28.878Z,4.50
2019-03-22T12:26:01.000Z,3.97
2019-03-22T12:28:33.140Z,3.90
2019-03-22T12:31:05.253Z,3.70
2019-03-22T12:33:37.399Z,3.30
2019-03-22T12:36:09.491Z,3.70
2019-03-22T12:38:41.583Z,3.80
2019-03-22T12:41:14.827Z,4.07
2019-03-22T12:43:46.931Z,4.00
2019-03-22T12:46:19.097Z,4.03
2019-03-22T12:48:51.218Z,3.90
2019-03-22T12:51:23.326Z,3.90
2019-03-22T12:53:55.524Z,3.90
2019-03-22T12:56:28.705Z,3.47
2019-03-22T12:59:00.809Z,3.53
2019-03-22T13:01:32.857Z,3.20
2019-03-22T13:04:04.998Z,3.00
2019-03-22T13:06:37.257Z,4.43
2019-03-22T13:09:10.851Z,3.30
2019-03-22T13:11:42.973Z,3.40
2019-03-22T13:14:15.127Z,3.30
2019-03-22T13:16:47.260Z,2.97
2019-03-22T13:19:19.418Z,3.17
2019-03-22T13:21:51.512Z,3.40
2019-03-22T13:24:23.916Z,2.93
2019-03-22T13:26:56.046Z,2.80
2019-03-22T13:29:28.201Z,2.73
2019-03-22T13:32:00.337Z,3.00
2019-03-22T13:34:32.500Z,3.13
2019-03-22T13:37:04.678Z,3.00
2019-03-22T13:39:36.798Z,2.90
2019-03-22T13:42:08.970Z,2.90
2019-03-22T13:44:41.079Z,3.10
2019-03-22T13:47:13.258Z,3.30
2019-03-22T13:49:45.388Z,2.77
2019-03-22T13:52:17.643Z,3.30
2019-03-22T13:54:49.739Z,3.27
2019-03-22T13:57:24.085Z,3.17
2019-03-22T13:59:56.201Z,2.83
2019-03-22T14:02:28.410Z,4.00
2019-03-22T14:05:00.632Z,4.00
2019-03-22T14:07:32.646Z,3.50
2019-03-22T14:10:05.036Z,3.40
2019-03-22T14:12:38.172Z,3.20
2019-03-22T14:15:10.578Z,3.30
2019-03-22T14:17:42.701Z,3.73
2019-03-22T14:20:14.836Z,3.60
2019-03-22T14:22:47.002Z,3.10
2019-03-22T14:25:19.146Z,2.60
2019-03-22T14:27:51.301Z,2.47
2019-03-22T14:30:23.545Z,2.27
2019-03-22T14:32:55.833Z,2.83
2019-03-22T14:35:28.603Z,2.70
2019-03-22T14:38:00.720Z,2.93
2019-03-22T14:40:32.888Z,2.80
2019-03-22T14:43:05.001Z,2.60
2019-03-22T14:45:37.171Z,3.00
2019-03-22T14:48:09.325Z,2.30
2019-03-22T14:50:41.820Z,2.27
2019-03-22T14:53:14.003Z,2.30
2019-03-22T14:55:46.228Z,2.47
2019-03-22T14:58:18.371Z,2.10
2019-03-22T15:00:50.479Z,2.50
2019-03-22T15:03:26.708Z,2.10
2019-03-22T15:05:58.950Z,2.13
2019-03-22T15:08:31.030Z,2.13
2019-03-22T15:11:03.149Z,2.30
2019-03-22T15:13:38.727Z,2.20
2019-03-22T15:16:34.083Z,1.87
2019-03-22T15:19:16.875Z,1.70
2019-03-22T15:22:09.791Z,1.70
2019-03-22T15:25:00.702Z,1.60
2019-03-22T15:27:51.751Z,1.77
2019-03-22T15:30:55.225Z,1.90
2019-03-22T15:33:46.367Z,1.80
2019-03-22T15:36:42.673Z,2.33
2019-03-22T15:39:44.371Z,1.97
2019-03-22T15:42:16.093Z,2.10
2019-03-22T15:44:48.236Z,1.97
2019-03-22T15:47:20.787Z,1.83
2019-03-22T15:49:52.911Z,2.00
2019-03-22T15:52:25.156Z,1.60
2019-03-22T15:54:57.200Z,1.60
2019-03-22T15:57:29.327Z,1.87
2019-03-22T16:00:01.447Z,1.77
2019-03-22T16:02:33.554Z,1.57
2019-03-22T16:05:06.665Z,1.50
2019-03-22T16:07:38.794Z,1.90
2019-03-22T16:10:11.178Z,1.80
2019-03-22T16:12:43.290Z,1.83
2019-03-22T16:15:15.775Z,1.70
2019-03-22T16:17:47.934Z,1.40
2019-03-22T16:20:20.273Z,1.70
2019-03-22T16:22:52.377Z,1.47
2019-03-22T16:25:24.531Z,1.63
2019-03-22T16:28:01.327Z,1.43
2019-03-22T16:30:33.459Z,1.57
2019-03-22T16:33:05.582Z,1.57
2019-03-22T16:35:38.630Z,1.50
2019-03-22T16:38:10.740Z,1.47
2019-03-22T16:40:42.827Z,1.73
2019-03-22T16:43:15.031Z,1.50
2019-03-22T16:45:47.120Z,1.20
2019-03-22T16:48:19.289Z,1.40
2019-03-22T16:50:51.430Z,1.10
2019-03-22T16:53:23.565Z,1.23
2019-03-22T16:55:55.740Z,1.30
2019-03-22T16:58:28.153Z,1.33
2019-03-22T17:01:00.309Z,1.10
2019-03-22T17:03:32.477Z,1.20
2019-03-22T17:06:04.623Z,1.27
2019-03-22T17:08:36.756Z,1.40
2019-03-22T17:11:08.902Z,1.20
2019-03-22T17:13:40.931Z,1.13
2019-03-22T17:16:13.187Z,1.30
2019-03-22T17:18:45.355Z,1.30
2019-03-22T17:21:17.551Z,1.20
2019-03-22T17:23:49.643Z,1.30
2019-03-22T17:26:21.766Z,1.43
2019-03-22T17:28:53.786Z,1.17
2019-03-22T17:31:25.934Z,1.33
2019-03-22T17:33:58.073Z,1.50
2019-03-22T17:36:30.286Z,1.20
2019-03-22T17:39:02.396Z,1.60
2019-03-22T17:41:34.867Z,1.60
2019-03-22T17:44:07.321Z,1.50
2019-03-22T17:46:39.439Z,1.47
2019-03-22T17:49:11.543Z,1.40
2019-03-22T17:51:43.664Z,1.40
2019-03-22T17:54:15.760Z,1.30
2019-03-22T17:56:47.789Z,1.33
2019-03-22T17:59:20.192Z,1.57
2019-03-22T18:01:52.396Z,1.20
2019-03-22T18:04:24.614Z,1.20
2019-03-22T18:06:56.723Z,1.50
2019-03-22T18:09:28.874Z,1.30
2019-03-22T18:12:01.038Z,1.20
2019-03-22T18:14:33.175Z,1.10
2019-03-22T18:17:05.279Z,1.20
2019-03-22T18:19:37.346Z,1.23
2019-03-22T18:22:09.495Z,1.20
2019-03-22T18:24:41.653Z,1.20
2019-03-22T18:27:13.765Z,1.10
2019-03-22T18:29:45.913Z,1.10
2019-03-22T18:32:18.078Z,1.30
2019-03-22T18:34:50.188Z,1.17
2019-03-22T18:37:24.782Z,1.20
2019-03-22T18:39:56.893Z,1.30
2019-03-22T18:42:29.111Z,1.10
2019-03-22T18:45:01.126Z,1.20
2019-03-22T18:47:33.293Z,1.20
2019-03-22T18:50:06.520Z,1.30
2019-03-22T18:52:41.113Z,1.30
2019-03-22T18:55:13.737Z,1.10
2019-03-22T18:57:45.851Z,1.20
2019-03-22T19:00:18.277Z,1.30
2019-03-22T19:02:50.433Z,1.20
2019-03-22T19:05:25.607Z,1.30
2019-03-22T19:07:57.837Z,1.50
2019-03-22T19:10:29.995Z,1.50
2019-03-22T19:13:02.026Z,1.30
2019-03-22T19:15:34.074Z,1.53
2019-03-22T19:18:06.175Z,1.50
2019-03-22T19:20:38.367Z,1.60
2019-03-22T19:23:10.547Z,1.70
2019-03-22T19:25:42.831Z,1.60
2019-03-22T19:28:14.995Z,1.63
2019-03-22T19:30:47.225Z,1.30
2019-03-22T19:33:19.400Z,1.40
2019-03-22T19:35:51.684Z,1.50
2019-03-22T19:38:23.904Z,1.50
2019-03-22T19:40:56.038Z,1.60
2019-03-22T19:43:28.142Z,1.50
2019-03-22T19:46:00.314Z,1.40
2019-03-22T19:48:32.455Z,1.50
2019-03-22T19:51:04.617Z,1.70
2019-03-22T19:53:36.757Z,1.60
2019-03-22T19:56:08.794Z,1.73
2019-03-22T19:58:41.052Z,2.30
2019-03-22T20:01:13.045Z,2.70
2019-03-22T20:03:45.236Z,2.53
2019-03-22T20:06:17.370Z,2.13
2019-03-22T20:08:49.473Z,1.93
2019-03-22T20:11:21.705Z,1.93
2019-03-22T20:13:53.850Z,1.70
2019-03-22T20:16:26.020Z,2.03
2019-03-22T20:18:58.143Z,2.17
2019-03-22T20:21:30.353Z,1.80
2019-03-22T20:24:02.518Z,1.80
2019-03-22T20:26:34.664Z,2.07
2019-03-22T20:29:06.810Z,1.87
2019-03-22T20:31:38.929Z,2.13
2019-03-22T20:34:11.073Z,2.80
2019-03-22T20:36:43.818Z,2.03
2019-03-22T20:39:19.493Z,1.80
2019-03-22T20:41:51.706Z,2.10
2019-03-22T20:44:33.570Z,2.10
2019-03-22T20:46:57.610Z,2.30
2019-03-22T20:49:29.760Z,2.20
2019-03-22T20:52:01.929Z,1.90
2019-03-22T20:54:34.072Z,1.93
2019-03-22T20:57:06.226Z,2.07
2019-03-22T20:59:38.344Z,2.30
2019-03-22T21:02:12.786Z,2.37
2019-03-22T21:04:44.931Z,2.00
2019-03-22T21:07:17.090Z,2.30
2019-03-22T21:09:51.374Z,2.17
2019-03-22T21:12:23.520Z,1.90
2019-03-22T21:14:55.659Z,2.10
2019-03-22T21:17:27.762Z,1.90
2019-03-22T21:19:59.904Z,2.30
2019-03-22T21:22:32.041Z,1.83
2019-03-22T21:25:04.417Z,2.10
2019-03-22T21:27:36.561Z,1.93
2019-03-22T21:30:08.983Z,1.97
2019-03-22T21:32:45.513Z,2.03
2019-03-22T21:35:22.330Z,2.00
2019-03-22T21:37:48.940Z,1.80
2019-03-22T21:40:21.085Z,2.10
2019-03-22T21:42:53.425Z,2.00
2019-03-22T21:45:25.574Z,2.00
2019-03-22T21:47:58.634Z,1.73
2019-03-22T21:50:30.758Z,2.30
2019-03-22T21:53:02.927Z,2.30
2019-03-22T21:55:36.038Z,2.67
2019-03-22T21:58:08.146Z,2.13
2019-03-22T22:00:40.307Z,2.40
2019-03-22T22:03:14.487Z,2.70
2019-03-22T22:05:48.068Z,2.50
2019-03-22T22:08:20.390Z,2.37
2019-03-22T22:10:59.564Z,2.97
2019-03-22T22:13:26.306Z,2.70
2019-03-22T22:15:58.381Z,2.33
2019-03-22T22:18:30.485Z,2.80
2019-03-22T22:21:02.625Z,2.63
2019-03-22T22:23:34.731Z,3.00
2019-03-22T22:26:06.872Z,2.77
2019-03-22T22:28:38.974Z,2.67
2019-03-22T22:31:11.513Z,2.73
2019-03-22T22:33:43.585Z,3.03
2019-03-22T22:36:15.690Z,3.00
2019-03-22T22:38:47.831Z,3.10
2019-03-22T22:41:19.979Z,3.03
2019-03-22T22:43:52.104Z,2.90
2019-03-22T22:46:24.242Z,2.67
2019-03-22T22:48:56.302Z,3.17
2019-03-22T22:51:28.441Z,3.50
2019-03-22T22:54:00.561Z,3.07
2019-03-22T22:56:32.731Z,3.00
2019-03-22T22:59:04.867Z,3.13
2019-03-22T23:01:36.896Z,2.70
2019-03-22T23:04:08.998Z,2.80
2019-03-22T23:06:41.134Z,3.10
2019-03-22T23:09:13.176Z,3.20
2019-03-22T23:11:45.235Z,2.90
2019-03-22T23:14:17.377Z,3.33
2019-03-22T23:16:49.480Z,3.67
2019-03-22T23:19:21.636Z,3.37
2019-03-22T23:21:53.792Z,3.53
2019-03-22T23:24:25.928Z,3.80
2019-03-22T23:26:58.053Z,3.70
2019-03-22T23:29:30.186Z,4.07
2019-03-22T23:32:02.297Z,4.50
2019-03-22T23:34:34.411Z,4.30
2019-03-22T23:37:07.313Z,3.90
2019-03-22T23:39:39.472Z,3.77
2019-03-22T23:42:11.646Z,4.00
2019-03-22T23:44:43.778Z,4.00
2019-03-22T23:47:15.892Z,3.73
2019-03-22T23:49:48.045Z,3.90
2019-03-22T23:52:20.174Z,3.37
2019-03-22T23:54:52.373Z,3.33
2019-03-22T23:57:24.508Z,3.50
2019-03-22T23:59:56.647Z,3.70
